Time,TemperatureF,DewpointF,PressureIn,WindDirection,WindDirectionDegrees,WindSpeedMPH,WindSpeedGustMPH,Humidity,HourlyPrecipIn,Conditions,Clouds,dailyrainin,SoftwareType,DateUTC
2013-07-21 00:01:00,72.9,62.5,29.06,WSW,238,0.0,0.0,70,0.00,,---,0.00,VWS V14.01,2013-07-21 04:01:00,
2013-07-21 00:02:00,72.9,62.5,29.06,WSW,238,0.0,0.0,70,0.00,,---,0.00,VWS V14.01,2013-07-21 04:02:00,
2013-07-21 00:03:00,72.7,62.3,29.06,West,281,2.2,3.1,70,0.00,,---,0.00,VWS V14.01,2013-07-21 04:03:00,
2013-07-21 00:08:00,72.7,62.3,29.06,WSW,258,0.0,0.0,70,0.00,,---,0.00,VWS V14.01,2013-07-21 04:08:00,
2013-07-21 00:13:00,72.5,62.6,29.06,West,280,2.2,2.2,71,0.00,,---,0.00,VWS V14.01,2013-07-21 04:13:00,
2013-07-21 00:18:00,72.7,63.1,29.06,WNW,285,5.4,5.4,72,0.00,,---,0.00,VWS V14.01,2013-07-21 04:18:00,
2013-07-21 00:23:00,72.7,63.1,29.06,West,264,3.1,3.1,72,0.00,,---,0.00,VWS V14.01,2013-07-21 04:23:00,
2013-07-21 00:28:00,72.7,63.5,29.06,NW,304,3.1,5.4,73,0.00,,---,0.00,VWS V14.01,2013-07-21 04:28:00,
2013-07-21 00:33:00,72.7,63.5,29.06,WNW,289,2.7,2.7,73,0.00,,---,0.00,VWS V14.01,2013-07-21 04:33:00,
2013-07-21 00:38:00,72.7,63.5,29.06,NW,305,0.0,3.1,73,0.00,,---,0.00,VWS V14.01,2013-07-21 04:38:00,
2013-07-21 00:43:00,72.7,63.5,29.06,NW,311,4.9,4.9,73,0.00,,---,0.00,VWS V14.01,2013-07-21 04:43:00,
2013-07-21 00:49:00,72.5,63.4,29.06,WNW,300,4.0,4.0,73,0.00,,---,0.00,VWS V14.01,2013-07-21 04:49:00,
2013-07-21 00:54:00,72.5,63.8,29.06,WNW,295,0.0,0.0,74,0.00,,---,0.00,VWS V14.01,2013-07-21 04:54:00,
2013-07-21 00:59:00,72.7,63.9,29.06,WNW,299,0.0,0.0,74,0.00,,---,0.00,VWS V14.01,2013-07-21 04:59:00,
2013-07-21 01:04:00,72.5,63.8,29.06,WNW,299,0.0,0.0,74,0.00,,---,0.00,VWS V14.01,2013-07-21 05:04:00,
2013-07-21 01:09:00,72.5,63.8,29.06,WNW,299,0.0,0.0,74,0.00,,---,0.00,VWS V14.01,2013-07-21 05:09:00,
2013-07-21 01:14:00,72.3,63.6,29.06,NW,304,2.7,2.7,74,0.00,,---,0.00,VWS V14.01,2013-07-21 05:14:00,
2013-07-21 01:19:00,72.3,63.6,29.06,WNW,293,0.0,3.1,74,0.00,,---,0.00,VWS V14.01,2013-07-21 05:19:00,
2013-07-21 01:24:00,72.3,63.6,29.06,WNW,302,2.7,3.6,74,0.00,,---,0.00,VWS V14.01,2013-07-21 05:24:00,
2013-07-21 01:29:00,72.3,64.0,29.06,NW,312,3.1,4.0,75,0.00,,---,0.00,VWS V14.01,2013-07-21 05:29:00,
2013-07-21 01:34:00,72.3,64.0,29.06,WNW,302,4.9,4.9,75,0.00,,---,0.00,VWS V14.01,2013-07-21 05:34:00,
2013-07-21 01:39:00,72.3,64.0,29.06,NW,310,3.1,4.0,75,0.00,,---,0.00,VWS V14.01,2013-07-21 05:39:00,
2013-07-21 01:44:00,72.1,63.8,29.06,NW,325,2.7,4.0,75,0.00,,---,0.00,VWS V14.01,2013-07-21 05:44:00,
2013-07-21 01:49:00,72.1,63.8,29.06,NW,313,3.6,3.6,75,0.00,,---,0.00,VWS V14.01,2013-07-21 05:49:00,
2013-07-21 01:54:00,72.0,63.2,29.06,NNW,334,4.0,6.3,74,0.00,,---,0.00,VWS V14.01,2013-07-21 05:54:00,
2013-07-21 01:59:00,72.0,63.2,29.06,West,281,0.0,0.0,74,0.00,,---,0.00,VWS V14.01,2013-07-21 05:59:00,
2013-07-21 02:04:00,71.8,63.1,29.06,NNW,327,4.0,4.9,74,0.00,,---,0.00,VWS V14.01,2013-07-21 06:04:00,
2013-07-21 02:09:00,71.6,62.9,29.06,NNW,335,5.8,5.8,74,0.00,,---,0.00,VWS V14.01,2013-07-21 06:09:00,
2013-07-21 02:14:00,71.6,63.3,29.06,WNW,300,0.0,0.0,75,0.00,,---,0.00,VWS V14.01,2013-07-21 06:14:00,
2013-07-21 02:19:00,71.4,63.1,29.06,NW,306,0.0,3.6,75,0.00,,---,0.00,VWS V14.01,2013-07-21 06:19:00,
2013-07-21 02:25:00,71.2,62.9,29.06,WNW,285,3.1,3.6,75,0.00,,---,0.00,VWS V14.01,2013-07-21 06:25:00,
2013-07-21 02:30:00,71.2,63.3,29.06,NW,322,3.1,4.0,76,0.00,,---,0.00,VWS V14.01,2013-07-21 06:30:00,
2013-07-21 02:35:00,71.1,63.1,29.06,NNW,340,4.0,4.0,76,0.00,,---,0.00,VWS V14.01,2013-07-21 06:35:00,
2013-07-21 02:40:00,71.1,63.1,29.06,NW,315,2.7,3.6,76,0.00,,---,0.00,VWS V14.01,2013-07-21 06:40:00,
2013-07-21 02:45:00,70.9,63.3,29.06,NW,316,2.7,3.1,77,0.00,,---,0.00,VWS V14.01,2013-07-21 06:45:00,
2013-07-21 02:50:00,70.9,63.3,29.06,North,0,3.1,4.5,77,0.00,,---,0.00,VWS V14.01,2013-07-21 06:50:00,
2013-07-21 02:55:00,70.9,63.7,29.06,NNW,338,2.7,4.0,78,0.00,,---,0.00,VWS V14.01,2013-07-21 06:55:00,
2013-07-21 03:00:00,70.9,63.7,29.06,NW,322,4.0,6.3,78,0.00,,---,0.00,VWS V14.01,2013-07-21 07:00:00,
2013-07-21 03:05:00,70.7,63.5,29.06,NNW,334,4.9,5.4,78,0.00,,---,0.00,VWS V14.01,2013-07-21 07:05:00,
2013-07-21 03:10:00,70.7,63.9,29.06,NNW,333,3.1,3.1,79,0.00,,---,0.00,VWS V14.01,2013-07-21 07:10:00,
2013-07-21 03:15:00,70.7,63.9,29.06,NNW,337,0.0,0.0,79,0.00,,---,0.00,VWS V14.01,2013-07-21 07:15:00,
2013-07-21 03:20:00,70.7,63.9,29.06,North,353,2.7,2.7,79,0.00,,---,0.00,VWS V14.01,2013-07-21 07:20:00,
2013-07-21 03:25:00,70.5,63.7,29.06,NW,313,2.7,2.7,79,0.00,,---,0.00,VWS V14.01,2013-07-21 07:25:00,
2013-07-21 03:30:00,70.5,63.7,29.06,NNW,337,0.0,0.0,79,0.00,,---,0.00,VWS V14.01,2013-07-21 07:30:00,
2013-07-21 03:35:00,70.5,64.1,29.06,NW,324,0.0,0.0,80,0.00,,---,0.00,VWS V14.01,2013-07-21 07:35:00,
2013-07-21 03:40:00,70.3,63.9,29.06,NNW,339,0.0,2.2,80,0.00,,---,0.00,VWS V14.01,2013-07-21 07:40:00,
2013-07-21 03:45:00,70.3,63.9,29.06,NNE,15,3.1,3.6,80,0.00,,---,0.00,VWS V14.01,2013-07-21 07:45:00,
2013-07-21 03:50:00,70.3,63.9,29.06,North,3,0.0,0.0,80,0.00,,---,0.00,VWS V14.01,2013-07-21 07:50:00,
2013-07-21 03:56:00,70.3,64.2,29.06,NNE,33,0.0,0.0,81,0.00,,---,0.00,VWS V14.01,2013-07-21 07:56:00,
2013-07-21 04:01:00,70.3,64.2,29.06,NNE,33,0.0,0.0,81,0.00,,---,0.00,VWS V14.01,2013-07-21 08:01:00,
2013-07-21 04:06:00,70.3,64.2,29.06,NNE,24,0.0,0.0,81,0.00,,---,0.00,VWS V14.01,2013-07-21 08:06:00,
2013-07-21 04:11:00,70.2,64.1,29.06,NNE,26,0.0,0.0,81,0.00,,---,0.00,VWS V14.01,2013-07-21 08:11:00,
2013-07-21 04:16:00,70.2,64.1,29.06,NNE,26,0.0,0.0,81,0.00,,---,0.00,VWS V14.01,2013-07-21 08:16:00,
2013-07-21 04:21:00,70.2,64.4,29.06,NNE,26,0.0,0.0,82,0.00,,---,0.00,VWS V14.01,2013-07-21 08:21:00,
2013-07-21 04:26:00,70.2,64.4,29.06,NNE,26,0.0,0.0,82,0.00,,---,0.00,VWS V14.01,2013-07-21 08:26:00,
2013-07-21 04:31:00,70.2,64.4,29.06,NNE,26,0.0,0.0,82,0.00,,---,0.00,VWS V14.01,2013-07-21 08:31:00,
2013-07-21 04:36:00,70.2,64.4,29.06,NNE,26,0.0,0.0,82,0.00,,---,0.00,VWS V14.01,2013-07-21 08:36:00,
2013-07-21 04:41:00,70.2,64.4,29.06,NNE,26,0.0,0.0,82,0.00,,---,0.00,VWS V14.01,2013-07-21 08:41:00,
2013-07-21 04:46:00,70.2,64.4,29.06,NNE,26,0.0,0.0,82,0.00,,---,0.00,VWS V14.01,2013-07-21 08:46:00,
2013-07-21 04:51:00,70.2,64.4,29.06,NNE,26,0.0,0.0,82,0.00,,---,0.00,VWS V14.01,2013-07-21 08:51:00,
2013-07-21 04:56:00,70.0,64.2,29.06,NNE,26,0.0,0.0,82,0.00,,---,0.00,VWS V14.01,2013-07-21 08:56:00,
2013-07-21 05:01:00,70.0,64.2,29.06,NNE,26,0.0,0.0,82,0.00,,---,0.00,VWS V14.01,2013-07-21 09:01:00,
2013-07-21 05:06:00,70.0,64.2,29.06,NNE,26,0.0,0.0,82,0.00,,---,0.00,VWS V14.01,2013-07-21 09:06:00,
2013-07-21 05:11:00,70.0,64.2,29.06,NNE,26,0.0,0.0,82,0.00,,---,0.00,VWS V14.01,2013-07-21 09:11:00,
2013-07-21 05:16:00,70.0,64.2,29.06,NNE,26,0.0,0.0,82,0.00,,---,0.00,VWS V14.01,2013-07-21 09:16:00,
2013-07-21 05:21:00,70.0,64.2,29.06,NNE,26,0.0,0.0,82,0.00,,---,0.00,VWS V14.01,2013-07-21 09:21:00,
2013-07-21 05:26:00,69.8,64.1,29.06,NNE,26,0.0,0.0,82,0.00,,---,0.00,VWS V14.01,2013-07-21 09:26:00,
2013-07-21 05:32:00,69.6,63.9,29.06,NNE,26,0.0,0.0,82,0.00,,---,0.00,VWS V14.01,2013-07-21 09:32:00,
2013-07-21 05:37:00,69.6,63.9,29.06,NNE,26,0.0,0.0,82,0.00,,---,0.00,VWS V14.01,2013-07-21 09:37:00,
2013-07-21 05:42:00,69.6,63.9,29.06,NNE,26,0.0,0.0,82,0.00,,---,0.00,VWS V14.01,2013-07-21 09:42:00,
2013-07-21 05:47:00,69.6,63.9,29.06,NNE,26,0.0,0.0,82,0.00,,---,0.00,VWS V14.01,2013-07-21 09:47:00,
2013-07-21 05:52:00,69.6,63.9,29.06,NNE,26,0.0,0.0,82,0.00,,---,0.00,VWS V14.01,2013-07-21 09:52:00,
2013-07-21 05:57:00,69.6,63.9,29.06,NNE,26,0.0,0.0,82,0.00,,---,0.00,VWS V14.01,2013-07-21 09:57:00,
2013-07-21 06:02:00,69.4,64.1,29.09,NNE,26,0.0,0.0,83,0.00,,---,0.00,VWS V14.01,2013-07-21 10:02:00,
2013-07-21 06:07:00,69.4,63.7,29.09,NNE,26,0.0,0.0,82,0.00,,---,0.00,VWS V14.01,2013-07-21 10:07:00,
2013-07-21 06:12:00,69.4,63.7,29.09,NNE,26,0.0,0.0,82,0.00,,---,0.00,VWS V14.01,2013-07-21 10:12:00,
2013-07-21 06:17:00,69.3,63.5,29.09,NNE,26,0.0,0.0,82,0.00,,---,0.00,VWS V14.01,2013-07-21 10:17:00,
2013-07-21 06:22:00,69.3,63.5,29.09,NNE,26,0.0,0.0,82,0.00,,---,0.00,VWS V14.01,2013-07-21 10:22:00,
2013-07-21 06:27:00,69.1,63.4,29.09,NNE,26,0.0,0.0,82,0.00,,---,0.00,VWS V14.01,2013-07-21 10:27:00,
2013-07-21 06:32:00,68.9,63.2,29.09,NNE,26,0.0,0.0,82,0.00,,---,0.00,VWS V14.01,2013-07-21 10:32:00,
2013-07-21 06:38:00,68.9,63.2,29.09,NNE,26,0.0,0.0,82,0.00,,---,0.00,VWS V14.01,2013-07-21 10:38:00,
2013-07-21 06:43:00,68.9,63.2,29.09,NNE,26,0.0,0.0,82,0.00,,---,0.00,VWS V14.01,2013-07-21 10:43:00,
2013-07-21 06:48:00,68.7,63.0,29.09,NNE,26,0.0,0.0,82,0.00,,---,0.00,VWS V14.01,2013-07-21 10:48:00,
2013-07-21 06:53:00,68.7,63.3,29.09,NNE,26,0.0,0.0,83,0.00,,---,0.00,VWS V14.01,2013-07-21 10:53:00,
2013-07-21 06:58:00,68.7,63.3,29.09,NNE,26,0.0,0.0,83,0.00,,---,0.00,VWS V14.01,2013-07-21 10:58:00,
2013-07-21 07:03:00,68.7,63.3,29.09,NNE,26,0.0,0.0,83,0.00,,---,0.00,VWS V14.01,2013-07-21 11:03:00,
2013-07-21 07:08:00,68.9,63.9,29.09,NNE,26,0.0,0.0,84,0.00,,---,0.00,VWS V14.01,2013-07-21 11:08:00,
2013-07-21 07:13:00,68.9,63.9,29.09,NNE,26,0.0,0.0,84,0.00,,---,0.00,VWS V14.01,2013-07-21 11:13:00,
2013-07-21 07:18:00,69.1,64.1,29.09,NNE,26,0.0,0.0,84,0.00,,---,0.00,VWS V14.01,2013-07-21 11:18:00,
2013-07-21 07:23:00,69.3,64.6,29.09,NNE,26,0.0,0.0,85,0.00,,---,0.00,VWS V14.01,2013-07-21 11:23:00,
2013-07-21 07:28:00,69.3,64.6,29.09,NNE,26,0.0,0.0,85,0.00,,---,0.00,VWS V14.01,2013-07-21 11:28:00,
2013-07-21 07:33:00,69.4,64.7,29.09,NNE,26,0.0,0.0,85,0.00,,---,0.00,VWS V14.01,2013-07-21 11:33:00,
2013-07-21 07:38:00,69.6,64.9,29.09,NNE,26,0.0,0.0,85,0.00,,---,0.00,VWS V14.01,2013-07-21 11:38:00,
2013-07-21 07:43:00,69.8,65.1,29.09,NNE,26,0.0,0.0,85,0.00,,---,0.00,VWS V14.01,2013-07-21 11:43:00,
2013-07-21 07:48:00,70.0,65.3,29.09,NNE,26,0.0,0.0,85,0.00,,---,0.00,VWS V14.01,2013-07-21 11:48:00,
2013-07-21 07:53:00,70.0,65.3,29.09,NE,36,0.0,0.0,85,0.00,,---,0.00,VWS V14.01,2013-07-21 11:53:00,
2013-07-21 07:58:00,70.3,65.6,29.09,NE,36,0.0,0.0,85,0.00,,---,0.00,VWS V14.01,2013-07-21 11:58:00,
2013-07-21 08:04:00,70.5,65.8,29.09,East,82,0.0,0.0,85,0.00,,---,0.00,VWS V14.01,2013-07-21 12:04:00,
2013-07-21 08:09:00,70.7,66.0,29.09,NE,46,3.6,3.6,85,0.00,,---,0.00,VWS V14.01,2013-07-21 12:09:00,
2013-07-21 08:14:00,70.9,65.8,29.09,NNE,33,2.7,3.1,84,0.00,,---,0.00,VWS V14.01,2013-07-21 12:14:00,
2013-07-21 08:19:00,71.1,66.0,29.09,SSE,157,0.0,0.0,84,0.00,,---,0.00,VWS V14.01,2013-07-21 12:19:00,
2013-07-21 08:24:00,71.2,65.8,29.09,NE,50,2.2,4.9,83,0.00,,---,0.00,VWS V14.01,2013-07-21 12:24:00,
2013-07-21 08:29:00,71.6,66.2,29.09,NE,37,2.7,3.6,83,0.00,,---,0.00,VWS V14.01,2013-07-21 12:29:00,
2013-07-21 08:34:00,71.8,66.0,29.09,East,82,0.0,0.0,82,0.00,,---,0.00,VWS V14.01,2013-07-21 12:34:00,
2013-07-21 08:39:00,72.0,65.8,29.09,SE,138,0.0,0.0,81,0.00,,---,0.00,VWS V14.01,2013-07-21 12:39:00,
2013-07-21 08:44:00,72.0,65.5,29.12,SE,135,0.0,2.2,80,0.00,,---,0.00,VWS V14.01,2013-07-21 12:44:00,
2013-07-21 08:49:00,72.0,65.1,29.12,ENE,66,0.0,2.2,79,0.00,,---,0.00,VWS V14.01,2013-07-21 12:49:00,
2013-07-21 08:54:00,72.1,64.9,29.12,ENE,69,3.1,3.6,78,0.00,,---,0.00,VWS V14.01,2013-07-21 12:54:00,
2013-07-21 08:59:00,72.3,65.1,29.12,NE,47,4.9,4.9,78,0.00,,---,0.00,VWS V14.01,2013-07-21 12:59:00,
2013-07-21 09:04:00,72.5,65.3,29.12,NE,44,0.0,0.0,78,0.00,,---,0.00,VWS V14.01,2013-07-21 13:04:00,
2013-07-21 09:09:00,72.5,65.3,29.12,NE,35,0.0,0.0,78,0.00,,---,0.00,VWS V14.01,2013-07-21 13:09:00,
2013-07-21 09:14:00,73.0,65.4,29.12,NNE,28,3.1,4.0,77,0.00,,---,0.00,VWS V14.01,2013-07-21 13:14:00,
2013-07-21 09:19:00,73.2,64.8,29.12,SE,131,3.6,4.0,75,0.00,,---,0.00,VWS V14.01,2013-07-21 13:19:00,
2013-07-21 09:24:00,73.6,63.6,29.12,East,81,2.2,2.2,71,0.00,,---,0.00,VWS V14.01,2013-07-21 13:24:00,
2013-07-21 09:29:00,73.6,63.6,29.12,SE,138,2.7,3.6,71,0.00,,---,0.00,VWS V14.01,2013-07-21 13:29:00,
2013-07-21 09:35:00,73.9,64.0,29.12,ESE,115,0.0,0.0,71,0.00,,---,0.00,VWS V14.01,2013-07-21 13:35:00,
2013-07-21 09:40:00,74.1,64.1,29.12,ENE,63,0.0,0.0,71,0.00,,---,0.00,VWS V14.01,2013-07-21 13:40:00,
2013-07-21 09:45:00,74.5,63.7,29.12,ENE,60,5.4,5.4,69,0.00,,---,0.00,VWS V14.01,2013-07-21 13:45:00,
2013-07-21 09:50:00,74.5,63.7,29.12,NNE,33,0.0,0.0,69,0.00,,---,0.00,VWS V14.01,2013-07-21 13:50:00,
2013-07-21 09:55:00,74.5,63.7,29.12,ENE,66,0.0,3.1,69,0.00,,---,0.00,VWS V14.01,2013-07-21 13:55:00,
2013-07-21 10:00:00,74.5,63.7,29.12,SE,141,0.0,2.2,69,0.00,,---,0.00,VWS V14.01,2013-07-21 14:00:00,
2013-07-21 10:05:00,74.5,63.7,29.12,South,183,0.0,2.2,69,0.00,,---,0.00,VWS V14.01,2013-07-21 14:05:00,
2013-07-21 10:10:00,75.9,62.4,29.12,SE,133,0.0,2.7,63,0.00,,---,0.00,VWS V14.01,2013-07-21 14:10:00,
2013-07-21 10:15:00,76.3,62.8,29.12,NE,52,2.7,3.1,63,0.00,,---,0.00,VWS V14.01,2013-07-21 14:15:00,
2013-07-21 10:20:00,76.3,62.8,29.12,SE,146,0.0,2.2,63,0.00,,---,0.00,VWS V14.01,2013-07-21 14:20:00,
2013-07-21 10:25:00,76.3,62.8,29.12,East,99,0.0,0.0,63,0.00,,---,0.00,VWS V14.01,2013-07-21 14:25:00,
2013-07-21 10:30:00,76.3,62.8,29.12,SE,145,0.0,0.0,63,0.00,,---,0.00,VWS V14.01,2013-07-21 14:30:00,
2013-07-21 10:35:00,76.3,62.8,29.12,SE,145,0.0,0.0,63,0.00,,---,0.00,VWS V14.01,2013-07-21 14:35:00,
2013-07-21 10:40:00,76.3,62.8,29.12,East,90,2.2,2.2,63,0.00,,---,0.00,VWS V14.01,2013-07-21 14:40:00,
2013-07-21 10:45:00,76.3,62.8,29.12,ESE,119,2.2,4.0,63,0.00,,---,0.00,VWS V14.01,2013-07-21 14:45:00,
2013-07-21 10:50:00,76.3,62.8,29.12,ESE,117,0.0,0.0,63,0.00,,---,0.00,VWS V14.01,2013-07-21 14:50:00,
2013-07-21 10:55:00,76.3,62.8,29.12,ESE,120,0.0,0.0,63,0.00,,---,0.00,VWS V14.01,2013-07-21 14:55:00,
2013-07-21 11:01:00,76.3,62.8,29.12,ESE,115,0.0,0.0,63,0.00,,---,0.00,VWS V14.01,2013-07-21 15:01:00,
2013-07-21 11:06:00,76.3,62.8,29.12,SE,128,3.6,3.6,63,0.00,,---,0.00,VWS V14.01,2013-07-21 15:06:00,
2013-07-21 11:11:00,76.3,62.8,29.12,ENE,64,4.9,4.9,63,0.00,,---,0.00,VWS V14.01,2013-07-21 15:11:00,
2013-07-21 11:16:00,76.3,62.8,29.12,SE,133,0.0,0.0,63,0.00,,---,0.00,VWS V14.01,2013-07-21 15:16:00,
2013-07-21 11:21:00,76.3,62.8,29.12,ESE,113,2.7,3.1,63,0.00,,---,0.00,VWS V14.01,2013-07-21 15:21:00,
2013-07-21 11:26:00,76.3,62.8,29.12,SW,227,0.0,0.0,63,0.00,,---,0.00,VWS V14.01,2013-07-21 15:26:00,
2013-07-21 11:31:00,76.3,62.8,29.12,ESE,121,0.0,0.0,63,0.00,,---,0.00,VWS V14.01,2013-07-21 15:31:00,
2013-07-21 11:36:00,76.3,62.8,29.12,NE,42,2.2,3.6,63,0.00,,---,0.00,VWS V14.01,2013-07-21 15:36:00,
2013-07-21 11:41:00,76.3,62.8,29.12,ESE,112,0.0,0.0,63,0.00,,---,0.00,VWS V14.01,2013-07-21 15:41:00,
2013-07-21 11:46:00,76.3,62.8,29.15,East,95,0.0,4.0,63,0.00,,---,0.00,VWS V14.01,2013-07-21 15:46:00,
2013-07-21 11:51:00,76.3,62.8,29.15,ENE,64,0.0,2.7,63,0.00,,---,0.00,VWS V14.01,2013-07-21 15:51:00,
2013-07-21 11:56:00,76.3,62.8,29.15,NE,45,4.0,6.3,63,0.00,,---,0.00,VWS V14.01,2013-07-21 15:56:00,
2013-07-21 12:01:00,76.3,62.8,29.12,ENE,72,0.0,4.0,63,0.00,,---,0.00,VWS V14.01,2013-07-21 16:01:00,
2013-07-21 12:06:00,76.3,62.8,29.12,SE,135,0.0,0.0,63,0.00,,---,0.00,VWS V14.01,2013-07-21 16:06:00,
2013-07-21 12:11:00,76.3,62.8,29.12,ENE,60,0.0,0.0,63,0.00,,---,0.00,VWS V14.01,2013-07-21 16:11:00,
2013-07-21 12:16:00,76.3,62.8,29.12,NNE,14,4.0,4.0,63,0.00,,---,0.00,VWS V14.01,2013-07-21 16:16:00,
2013-07-21 12:21:00,76.3,62.8,29.12,ENE,77,0.0,0.0,63,0.00,,---,0.00,VWS V14.01,2013-07-21 16:21:00,
2013-07-21 12:26:00,76.3,62.8,29.12,SE,130,2.7,3.1,63,0.00,,---,0.00,VWS V14.01,2013-07-21 16:26:00,
2013-07-21 12:32:00,76.3,62.8,29.12,SSE,153,0.0,0.0,63,0.00,,---,0.00,VWS V14.01,2013-07-21 16:32:00,
2013-07-21 12:37:00,76.3,62.8,29.12,NNE,20,0.0,5.4,63,0.00,,---,0.00,VWS V14.01,2013-07-21 16:37:00,
2013-07-21 12:42:00,76.3,62.8,29.12,East,92,0.0,0.0,63,0.00,,---,0.00,VWS V14.01,2013-07-21 16:42:00,
2013-07-21 12:47:00,76.3,62.8,29.12,East,83,0.0,4.0,63,0.00,,---,0.00,VWS V14.01,2013-07-21 16:47:00,
2013-07-21 12:52:00,76.3,62.8,29.12,ENE,62,0.0,0.0,63,0.00,,---,0.00,VWS V14.01,2013-07-21 16:52:00,
2013-07-21 12:57:00,76.3,62.8,29.12,North,357,0.0,0.0,63,0.00,,---,0.00,VWS V14.01,2013-07-21 16:57:00,
2013-07-21 13:02:00,76.3,62.8,29.12,North,5,0.0,0.0,63,0.00,,---,0.00,VWS V14.01,2013-07-21 17:02:00,
2013-07-21 13:07:00,76.3,62.8,29.12,NNE,30,2.7,5.4,63,0.00,,---,0.00,VWS V14.01,2013-07-21 17:07:00,
2013-07-21 13:12:00,76.3,62.8,29.12,NE,37,0.0,0.0,63,0.00,,---,0.00,VWS V14.01,2013-07-21 17:12:00,
2013-07-21 13:17:00,76.3,62.8,29.12,ESE,110,0.0,4.9,63,0.00,,---,0.00,VWS V14.01,2013-07-21 17:17:00,
2013-07-21 13:22:00,76.3,62.8,29.12,ESE,115,0.0,0.0,63,0.00,,---,0.00,VWS V14.01,2013-07-21 17:22:00,
2013-07-21 13:27:00,76.3,62.8,29.12,North,353,2.7,3.1,63,0.00,,---,0.00,VWS V14.01,2013-07-21 17:27:00,
2013-07-21 13:32:00,76.3,62.8,29.12,SSE,159,0.0,0.0,63,0.00,,---,0.00,VWS V14.01,2013-07-21 17:32:00,
2013-07-21 13:37:00,76.3,62.8,29.12,SE,134,0.0,0.0,63,0.00,,---,0.00,VWS V14.01,2013-07-21 17:37:00,
2013-07-21 13:42:00,76.3,62.8,29.12,ESE,104,0.0,0.0,63,0.00,,---,0.00,VWS V14.01,2013-07-21 17:42:00,
2013-07-21 13:47:00,76.3,62.8,29.12,ESE,119,0.0,2.2,63,0.00,,---,0.00,VWS V14.01,2013-07-21 17:47:00,
2013-07-21 13:52:00,76.3,62.8,29.12,SE,128,0.0,0.0,63,0.00,,---,0.00,VWS V14.01,2013-07-21 17:52:00,
2013-07-21 13:58:00,76.3,62.8,29.12,ENE,62,0.0,0.0,63,0.00,,---,0.00,VWS V14.01,2013-07-21 17:58:00,
2013-07-21 14:03:00,76.3,62.8,29.12,North,0,5.8,5.8,63,0.00,,---,0.00,VWS V14.01,2013-07-21 18:03:00,
2013-07-21 14:08:00,76.3,62.8,29.12,East,88,2.7,5.8,63,0.00,,---,0.00,VWS V14.01,2013-07-21 18:08:00,
2013-07-21 14:13:00,76.3,62.8,29.12,NE,36,0.0,0.0,63,0.00,,---,0.00,VWS V14.01,2013-07-21 18:13:00,
2013-07-21 14:18:00,76.3,62.8,29.12,SE,128,0.0,0.0,63,0.00,,---,0.00,VWS V14.01,2013-07-21 18:18:00,
2013-07-21 14:23:00,76.3,62.8,29.12,NE,52,3.6,4.9,63,0.00,,---,0.00,VWS V14.01,2013-07-21 18:23:00,
2013-07-21 14:28:00,76.3,62.8,29.12,NNE,30,2.2,2.2,63,0.00,,---,0.00,VWS V14.01,2013-07-21 18:28:00,
2013-07-21 14:33:00,76.3,62.8,29.12,ENE,59,0.0,0.0,63,0.00,,---,0.00,VWS V14.01,2013-07-21 18:33:00,
2013-07-21 14:38:00,76.3,62.8,29.12,ESE,111,0.0,0.0,63,0.00,,---,0.00,VWS V14.01,2013-07-21 18:38:00,
2013-07-21 14:43:00,76.3,62.8,29.12,SSE,161,0.0,0.0,63,0.00,,---,0.00,VWS V14.01,2013-07-21 18:43:00,
2013-07-21 14:48:00,76.3,62.8,29.12,ENE,78,3.6,3.6,63,0.00,,---,0.00,VWS V14.01,2013-07-21 18:48:00,
2013-07-21 14:53:00,76.3,62.8,29.12,NNE,28,0.0,0.0,63,0.00,,---,0.00,VWS V14.01,2013-07-21 18:53:00,
2013-07-21 14:58:00,76.3,62.8,29.12,NE,39,0.0,0.0,63,0.00,,---,0.00,VWS V14.01,2013-07-21 18:58:00,
2013-07-21 15:03:00,76.3,62.8,29.09,NNE,15,0.0,0.0,63,0.00,,---,0.00,VWS V14.01,2013-07-21 19:03:00,
2013-07-21 15:09:00,76.3,62.8,29.09,SE,135,0.0,0.0,63,0.00,,---,0.00,VWS V14.01,2013-07-21 19:09:00,
2013-07-21 15:14:00,76.3,62.8,29.09,NE,39,0.0,0.0,63,0.00,,---,0.00,VWS V14.01,2013-07-21 19:14:00,
2013-07-21 15:19:00,76.3,62.8,29.09,ESE,123,0.0,3.1,63,0.00,,---,0.00,VWS V14.01,2013-07-21 19:19:00,
2013-07-21 15:24:00,82.0,40.6,29.09,ESE,123,0.0,0.0,23,0.00,,---,0.00,VWS V14.01,2013-07-21 19:24:00,
2013-07-21 15:29:00,82.0,41.7,29.09,NNE,28,0.0,0.0,24,0.00,,---,0.00,VWS V14.01,2013-07-21 19:29:00,
2013-07-21 15:34:00,82.0,42.8,29.09,NNE,29,0.0,0.0,25,0.00,,---,0.00,VWS V14.01,2013-07-21 19:34:00,
2013-07-21 15:39:00,82.0,43.8,29.09,NNE,29,0.0,0.0,26,0.00,,---,0.00,VWS V14.01,2013-07-21 19:39:00,
2013-07-21 15:44:00,82.0,43.8,29.09,ESE,107,0.0,2.7,26,0.00,,---,0.00,VWS V14.01,2013-07-21 19:44:00,
2013-07-21 15:49:00,82.0,43.8,29.09,ESE,111,0.0,0.0,26,0.00,,---,0.00,VWS V14.01,2013-07-21 19:49:00,
2013-07-21 15:54:00,82.2,42.9,29.09,SSE,150,0.0,0.0,25,0.00,,---,0.00,VWS V14.01,2013-07-21 19:54:00,
2013-07-21 15:59:00,82.2,42.9,29.09,ESE,117,0.0,0.0,25,0.00,,---,0.00,VWS V14.01,2013-07-21 19:59:00,
2013-07-21 16:04:00,82.0,42.8,29.09,ESE,104,0.0,0.0,25,0.00,,---,0.00,VWS V14.01,2013-07-21 20:04:00,
2013-07-21 16:09:00,82.2,42.9,29.09,ESE,116,3.1,3.1,25,0.00,,---,0.00,VWS V14.01,2013-07-21 20:09:00,
2013-07-21 16:14:00,82.2,44.9,29.09,SSE,148,0.0,0.0,27,0.00,,---,0.00,VWS V14.01,2013-07-21 20:14:00,
2013-07-21 16:19:00,82.2,45.9,29.09,SE,129,0.0,0.0,28,0.00,,---,0.00,VWS V14.01,2013-07-21 20:19:00,
2013-07-21 16:24:00,82.2,46.8,29.09,SE,129,0.0,0.0,29,0.00,,---,0.00,VWS V14.01,2013-07-21 20:24:00,
2013-07-21 16:29:00,82.0,46.7,29.09,SE,129,0.0,0.0,29,0.00,,---,0.00,VWS V14.01,2013-07-21 20:29:00,
2013-07-21 16:35:00,82.4,46.1,29.09,SW,230,0.0,0.0,28,0.00,,---,0.00,VWS V14.01,2013-07-21 20:35:00,
2013-07-21 16:40:00,82.9,47.5,29.09,South,184,0.0,0.0,29,0.00,,---,0.00,VWS V14.01,2013-07-21 20:40:00,
2013-07-21 16:45:00,83.1,46.7,29.09,SSE,153,0.0,0.0,28,0.00,,---,0.00,VWS V14.01,2013-07-21 20:45:00,
2013-07-21 16:50:00,83.3,44.9,29.09,NNE,32,0.0,0.0,26,0.00,,---,0.00,VWS V14.01,2013-07-21 20:50:00,
2013-07-21 16:55:00,83.3,42.8,29.09,SE,125,0.0,3.1,24,0.00,,---,0.00,VWS V14.01,2013-07-21 20:55:00,
2013-07-21 17:00:00,83.5,41.8,29.06,ESE,117,0.0,0.0,23,0.00,,---,0.00,VWS V14.01,2013-07-21 21:00:00,
2013-07-21 17:05:00,83.5,42.9,29.06,ESE,118,0.0,2.7,24,0.00,,---,0.00,VWS V14.01,2013-07-21 21:05:00,
2013-07-21 17:10:00,83.3,41.7,29.06,SE,129,0.0,4.0,23,0.00,,---,0.00,VWS V14.01,2013-07-21 21:10:00,
2013-07-21 17:15:00,83.5,42.9,29.06,SSE,160,0.0,2.7,24,0.00,,---,0.00,VWS V14.01,2013-07-21 21:15:00,
2013-07-21 17:20:00,83.5,44.0,29.06,NE,45,0.0,0.0,25,0.00,,---,0.00,VWS V14.01,2013-07-21 21:20:00,
2013-07-21 17:25:00,83.3,42.8,29.06,ENE,71,0.0,0.0,24,0.00,,---,0.00,VWS V14.01,2013-07-21 21:25:00,
2013-07-21 17:30:00,83.1,42.6,29.06,ENE,72,0.0,0.0,24,0.00,,---,0.00,VWS V14.01,2013-07-21 21:30:00,
2013-07-21 17:35:00,82.9,41.4,29.06,SE,132,0.0,0.0,23,0.00,,---,0.00,VWS V14.01,2013-07-21 21:35:00,
2013-07-21 17:40:00,83.1,41.5,29.06,SE,146,0.0,0.0,23,0.00,,---,0.00,VWS V14.01,2013-07-21 21:40:00,
2013-07-21 17:45:00,83.1,41.5,29.06,SSE,160,0.0,0.0,23,0.00,,---,0.00,VWS V14.01,2013-07-21 21:45:00,
2013-07-21 17:51:00,83.1,40.4,29.06,ESE,121,0.0,0.0,22,0.00,,---,0.00,VWS V14.01,2013-07-21 21:51:00,
2013-07-21 17:56:00,83.3,41.7,29.06,South,182,0.0,0.0,23,0.00,,---,0.00,VWS V14.01,2013-07-21 21:56:00,
2013-07-21 18:01:00,83.3,40.5,29.06,ESE,114,0.0,3.6,22,0.00,,---,0.00,VWS V14.01,2013-07-21 22:01:00,
2013-07-21 18:06:00,83.1,40.4,29.06,SE,144,0.0,0.0,22,0.00,,---,0.00,VWS V14.01,2013-07-21 22:06:00,
2013-07-21 18:11:00,82.9,40.2,29.06,SSE,164,0.0,0.0,22,0.00,,---,0.00,VWS V14.01,2013-07-21 22:11:00,
2013-07-21 18:16:00,82.8,40.1,29.06,SE,139,0.0,3.1,22,0.00,,---,0.00,VWS V14.01,2013-07-21 22:16:00,
2013-07-21 18:21:00,82.8,40.1,29.06,SSE,168,0.0,2.7,22,0.00,,---,0.00,VWS V14.01,2013-07-21 22:21:00,
2013-07-21 18:26:00,82.8,41.2,29.06,South,185,0.0,0.0,23,0.00,,---,0.00,VWS V14.01,2013-07-21 22:26:00,
2013-07-21 18:31:00,82.8,41.2,29.06,SSE,151,0.0,0.0,23,0.00,,---,0.00,VWS V14.01,2013-07-21 22:31:00,
2013-07-21 18:36:00,82.6,41.1,29.06,South,183,0.0,0.0,23,0.00,,---,0.00,VWS V14.01,2013-07-21 22:36:00,
2013-07-21 18:41:00,82.6,42.2,29.06,SSE,167,0.0,0.0,24,0.00,,---,0.00,VWS V14.01,2013-07-21 22:41:00,
2013-07-21 18:46:00,82.4,42.0,29.03,South,171,0.0,0.0,24,0.00,,---,0.00,VWS V14.01,2013-07-21 22:46:00,
2013-07-21 18:51:00,82.4,40.9,29.03,South,181,0.0,0.0,23,0.00,,---,0.00,VWS V14.01,2013-07-21 22:51:00,
2013-07-21 18:56:00,82.4,40.9,29.03,ESE,118,0.0,0.0,23,0.00,,---,0.00,VWS V14.01,2013-07-21 22:56:00,
2013-07-21 19:01:00,82.4,40.9,29.06,SSE,164,0.0,0.0,23,0.00,,---,0.00,VWS V14.01,2013-07-21 23:01:00,
2013-07-21 19:06:00,82.6,42.2,29.06,SE,136,0.0,0.0,24,0.00,,---,0.00,VWS V14.01,2013-07-21 23:06:00,
2013-07-21 19:12:00,82.8,41.2,29.06,South,172,2.2,3.1,23,0.00,,---,0.00,VWS V14.01,2013-07-21 23:12:00,
2013-07-21 19:17:00,82.8,41.2,29.03,SE,138,0.0,0.0,23,0.00,,---,0.00,VWS V14.01,2013-07-21 23:17:00,
2013-07-21 19:22:00,82.8,41.2,29.03,SE,145,0.0,0.0,23,0.00,,---,0.00,VWS V14.01,2013-07-21 23:22:00,
2013-07-21 19:27:00,82.6,42.2,29.03,South,179,0.0,2.2,24,0.00,,---,0.00,VWS V14.01,2013-07-21 23:27:00,
2013-07-21 19:32:00,82.6,42.2,29.03,South,173,0.0,0.0,24,0.00,,---,0.00,VWS V14.01,2013-07-21 23:32:00,
2013-07-21 19:37:00,82.4,42.0,29.03,SE,146,0.0,0.0,24,0.00,,---,0.00,VWS V14.01,2013-07-21 23:37:00,
2013-07-21 19:42:00,82.2,41.9,29.03,South,170,0.0,0.0,24,0.00,,---,0.00,VWS V14.01,2013-07-21 23:42:00,
2013-07-21 19:47:00,82.0,41.7,29.03,South,172,0.0,0.0,24,0.00,,---,0.00,VWS V14.01,2013-07-21 23:47:00,
2013-07-21 19:52:00,82.0,41.7,29.03,East,99,0.0,0.0,24,0.00,,---,0.00,VWS V14.01,2013-07-21 23:52:00,
2013-07-21 19:57:00,82.0,41.7,29.03,East,99,0.0,0.0,24,0.00,,---,0.00,VWS V14.01,2013-07-21 23:57:00,
2013-07-21 20:02:00,82.0,41.7,29.06,ESE,104,0.0,0.0,24,0.00,,---,0.00,VWS V14.01,2013-07-22 00:02:00,
2013-07-21 20:07:00,82.0,41.7,29.06,ESE,104,0.0,0.0,24,0.00,,---,0.00,VWS V14.01,2013-07-22 00:07:00,
2013-07-21 20:12:00,82.0,41.7,29.06,ESE,104,0.0,0.0,24,0.00,,---,0.00,VWS V14.01,2013-07-22 00:12:00,
2013-07-21 20:17:00,82.0,41.7,29.06,ESE,104,0.0,0.0,24,0.00,,---,0.00,VWS V14.01,2013-07-22 00:17:00,
2013-07-21 20:22:00,82.0,41.7,29.06,ESE,104,0.0,0.0,24,0.00,,---,0.00,VWS V14.01,2013-07-22 00:22:00,
2013-07-21 20:27:00,82.0,41.7,29.06,ESE,104,0.0,0.0,24,0.00,,---,0.00,VWS V14.01,2013-07-22 00:27:00,
2013-07-21 20:32:00,82.0,41.7,29.06,ESE,104,0.0,0.0,24,0.00,,---,0.00,VWS V14.01,2013-07-22 00:32:00,
2013-07-21 20:38:00,82.0,41.7,29.06,ESE,104,0.0,0.0,24,0.00,,---,0.00,VWS V14.01,2013-07-22 00:38:00,
2013-07-21 20:43:00,82.0,41.7,29.06,ESE,104,0.0,0.0,24,0.00,,---,0.00,VWS V14.01,2013-07-22 00:43:00,
2013-07-21 20:48:00,82.0,41.7,29.06,ESE,104,0.0,0.0,24,0.00,,---,0.00,VWS V14.01,2013-07-22 00:48:00,
2013-07-21 20:53:00,82.0,41.7,29.06,ESE,104,0.0,0.0,24,0.00,,---,0.00,VWS V14.01,2013-07-22 00:53:00,
2013-07-21 20:58:00,82.0,41.7,29.06,ESE,104,0.0,0.0,24,0.00,,---,0.00,VWS V14.01,2013-07-22 00:58:00,
2013-07-21 21:03:00,82.0,41.7,29.06,ESE,111,0.0,0.0,24,0.00,,---,0.00,VWS V14.01,2013-07-22 01:03:00,
2013-07-21 21:08:00,82.0,41.7,29.06,ESE,111,0.0,0.0,24,0.00,,---,0.00,VWS V14.01,2013-07-22 01:08:00,
2013-07-21 21:13:00,82.0,41.7,29.06,ESE,111,0.0,0.0,24,0.00,,---,0.00,VWS V14.01,2013-07-22 01:13:00,
2013-07-21 21:18:00,82.0,41.7,29.06,ESE,113,0.0,0.0,24,0.00,,---,0.00,VWS V14.01,2013-07-22 01:18:00,
2013-07-21 21:23:00,82.0,41.7,29.06,SE,134,0.0,2.2,24,0.00,,---,0.00,VWS V14.01,2013-07-22 01:23:00,
2013-07-21 21:28:00,82.0,41.7,29.06,SE,134,0.0,0.0,24,0.00,,---,0.00,VWS V14.01,2013-07-22 01:28:00,
2013-07-21 21:33:00,82.0,41.7,29.06,SE,134,0.0,0.0,24,0.00,,---,0.00,VWS V14.01,2013-07-22 01:33:00,
2013-07-21 21:38:00,82.0,41.7,29.06,SE,134,0.0,0.0,24,0.00,,---,0.00,VWS V14.01,2013-07-22 01:38:00,
2013-07-21 21:43:00,82.0,41.7,29.06,SE,134,0.0,0.0,24,0.00,,---,0.00,VWS V14.01,2013-07-22 01:43:00,
2013-07-21 21:48:00,82.0,41.7,29.06,SE,134,0.0,0.0,24,0.00,,---,0.00,VWS V14.01,2013-07-22 01:48:00,
2013-07-21 21:53:00,82.0,41.7,29.06,SE,134,0.0,0.0,24,0.00,,---,0.00,VWS V14.01,2013-07-22 01:53:00,
2013-07-21 21:58:00,82.0,41.7,29.06,SE,134,0.0,0.0,24,0.00,,---,0.00,VWS V14.01,2013-07-22 01:58:00,
2013-07-21 22:03:00,82.0,41.7,29.09,SE,125,0.0,0.0,24,0.00,,---,0.00,VWS V14.01,2013-07-22 02:03:00,
2013-07-21 22:09:00,82.0,41.7,29.09,SE,125,0.0,0.0,24,0.00,,---,0.00,VWS V14.01,2013-07-22 02:09:00,
2013-07-21 22:14:00,82.0,41.7,29.09,SE,125,0.0,0.0,24,0.00,,---,0.00,VWS V14.01,2013-07-22 02:14:00,
2013-07-21 22:19:00,82.0,41.7,29.09,SE,125,0.0,0.0,24,0.00,,---,0.00,VWS V14.01,2013-07-22 02:19:00,
2013-07-21 22:24:00,82.0,41.7,29.09,SE,125,0.0,0.0,24,0.00,,---,0.00,VWS V14.01,2013-07-22 02:24:00,
2013-07-21 22:29:00,82.0,41.7,29.09,SE,125,0.0,0.0,24,0.00,,---,0.00,VWS V14.01,2013-07-22 02:29:00,
2013-07-21 22:34:00,82.0,41.7,29.09,SE,125,0.0,0.0,24,0.00,,---,0.00,VWS V14.01,2013-07-22 02:34:00,
2013-07-21 22:39:00,82.0,41.7,29.09,SE,125,0.0,0.0,24,0.00,,---,0.00,VWS V14.01,2013-07-22 02:39:00,
2013-07-21 22:44:00,82.0,41.7,29.09,SE,125,0.0,0.0,24,0.00,,---,0.00,VWS V14.01,2013-07-22 02:44:00,
2013-07-21 22:49:00,82.0,41.7,29.09,SE,125,0.0,0.0,24,0.00,,---,0.00,VWS V14.01,2013-07-22 02:49:00,
2013-07-21 22:54:00,82.0,41.7,29.09,SE,125,0.0,0.0,24,0.00,,---,0.00,VWS V14.01,2013-07-22 02:54:00,
2013-07-21 22:59:00,82.0,41.7,29.09,SE,125,0.0,0.0,24,0.00,,---,0.00,VWS V14.01,2013-07-22 02:59:00,
2013-07-21 23:04:00,77.0,51.5,29.09,SE,125,0.0,0.0,41,0.00,,---,0.00,VWS V14.01,2013-07-22 03:04:00,
2013-07-21 23:09:00,77.0,51.5,29.09,SE,125,0.0,0.0,41,0.00,,---,0.00,VWS V14.01,2013-07-22 03:09:00,
2013-07-21 23:14:00,77.0,51.5,29.09,SE,125,0.0,0.0,41,0.00,,---,0.00,VWS V14.01,2013-07-22 03:14:00,
2013-07-21 23:19:00,76.6,52.5,29.09,ESE,123,0.0,0.0,43,0.00,,---,0.00,VWS V14.01,2013-07-22 03:19:00,
2013-07-21 23:24:00,76.5,52.3,29.09,SE,131,0.0,0.0,43,0.00,,---,0.00,VWS V14.01,2013-07-22 03:24:00,
2013-07-21 23:29:00,76.5,52.3,29.09,SE,131,0.0,0.0,43,0.00,,---,0.00,VWS V14.01,2013-07-22 03:29:00,
2013-07-21 23:34:00,76.3,52.8,29.09,ESE,114,0.0,0.0,44,0.00,,---,0.00,VWS V14.01,2013-07-22 03:34:00,
2013-07-21 23:40:00,76.3,52.8,29.09,ESE,116,0.0,0.0,44,0.00,,---,0.00,VWS V14.01,2013-07-22 03:40:00,
2013-07-21 23:45:00,76.1,53.2,29.09,ESE,123,0.0,0.0,45,0.00,,---,0.00,VWS V14.01,2013-07-22 03:45:00,
2013-07-21 23:50:00,76.1,53.2,29.09,ESE,118,0.0,0.0,45,0.00,,---,0.00,VWS V14.01,2013-07-22 03:50:00,
2013-07-21 23:55:00,75.9,53.7,29.09,ESE,115,0.0,0.0,46,0.00,,---,0.00,VWS V14.01,2013-07-22 03:55:00,